sensor_id;sensor_type;location;lat;lon;timestamp;pressure;altitude;pressure_sealevel;temperature
76347;BMP280;65171;48.378;10.010;2023-10-08T00:01:10;97231.53;;;15.69
76347;BMP280;65171;48.378;10.010;2023-10-08T00:03:35;97224.31;;;15.74
76347;BMP280;65171;48.378;10.010;2023-10-08T00:06:04;97215.50;;;15.83
76347;BMP280;65171;48.378;10.010;2023-10-08T00:08:29;97209.06;;;15.77
76347;BMP280;65171;48.378;10.010;2023-10-08T00:10:55;97210.59;;;15.72
76347;BMP280;65171;48.378;10.010;2023-10-08T00:13:21;97204.13;;;15.72
76347;BMP280;65171;48.378;10.010;2023-10-08T00:15:46;97203.13;;;15.75
76347;BMP280;65171;48.378;10.010;2023-10-08T00:18:11;97202.59;;;15.71
76347;BMP280;65171;48.378;10.010;2023-10-08T00:20:37;97185.50;;;15.60
76347;BMP280;65171;48.378;10.010;2023-10-08T00:23:02;97186.81;;;15.64
76347;BMP280;65171;48.378;10.010;2023-10-08T00:25:27;97188.38;;;15.76
76347;BMP280;65171;48.378;10.010;2023-10-08T00:27:53;97191.72;;;15.75
76347;BMP280;65171;48.378;10.010;2023-10-08T00:30:18;97182.94;;;15.62
76347;BMP280;65171;48.378;10.010;2023-10-08T00:32:44;97175.97;;;15.74
76347;BMP280;65171;48.378;10.010;2023-10-08T00:35:09;97113.31;;;15.19
76347;BMP280;65171;48.378;10.010;2023-10-08T00:37:34;97175.97;;;15.74
76347;BMP280;65171;48.378;10.010;2023-10-08T00:39:59;97178.81;;;15.85
76347;BMP280;65171;48.378;10.010;2023-10-08T00:42:25;97176.19;;;15.65
76347;BMP280;65171;48.378;10.010;2023-10-08T00:44:50;97177.75;;;15.66
76347;BMP280;65171;48.378;10.010;2023-10-08T00:47:16;97166.91;;;15.70
76347;BMP280;65171;48.378;10.010;2023-10-08T00:49:41;97172.84;;;15.72
76347;BMP280;65171;48.378;10.010;2023-10-08T00:52:09;97167.41;;;15.63
76347;BMP280;65171;48.378;10.010;2023-10-08T00:54:36;97168.94;;;15.69
76347;BMP280;65171;48.378;10.010;2023-10-08T00:57:02;97160.44;;;15.64
76347;BMP280;65171;48.378;10.010;2023-10-08T00:59:27;97163.53;;;15.55
76347;BMP280;65171;48.378;10.010;2023-10-08T01:01:52;97158.63;;;15.66
76347;BMP280;65171;48.378;10.010;2023-10-08T01:04:18;97151.63;;;15.67
76347;BMP280;65171;48.378;10.010;2023-10-08T01:06:44;97153.97;;;15.69
76347;BMP280;65171;48.378;10.010;2023-10-08T01:09:09;97152.16;;;15.71
76347;BMP280;65171;48.378;10.010;2023-10-08T01:11:35;97125.78;;;15.49
76347;BMP280;65171;48.378;10.010;2023-10-08T01:14:00;97149.56;;;15.73
76347;BMP280;65171;48.378;10.010;2023-10-08T01:16:25;97155.25;;;15.73
76347;BMP280;65171;48.378;10.010;2023-10-08T01:18:50;97151.88;;;15.86
76347;BMP280;65171;48.378;10.010;2023-10-08T01:21:16;97149.03;;;15.86
76347;BMP280;65171;48.378;10.010;2023-10-08T01:23:42;97159.91;;;15.82
76347;BMP280;65171;48.378;10.010;2023-10-08T01:26:07;97160.66;;;15.88
76347;BMP280;65171;48.378;10.010;2023-10-08T01:28:32;97153.19;;;15.85
76347;BMP280;65171;48.378;10.010;2023-10-08T01:30:59;97156.03;;;15.85
76347;BMP280;65171;48.378;10.010;2023-10-08T01:33:24;97149.56;;;15.73
76347;BMP280;65171;48.378;10.010;2023-10-08T01:35:49;97151.38;;;15.71
76347;BMP280;65171;48.378;10.010;2023-10-08T01:38:15;97149.81;;;15.70
76347;BMP280;65171;48.378;10.010;2023-10-08T01:40:41;97150.34;;;15.74
76347;BMP280;65171;48.378;10.010;2023-10-08T01:43:06;97149.03;;;15.80
76347;BMP280;65171;48.378;10.010;2023-10-08T01:45:35;97154.22;;;15.76
76347;BMP280;65171;48.378;10.010;2023-10-08T01:48:01;97135.63;;;15.64
76347;BMP280;65171;48.378;10.010;2023-10-08T01:50:26;97138.69;;;15.77
76347;BMP280;65171;48.378;10.010;2023-10-08T01:52:51;97147.75;;;15.76
76347;BMP280;65171;48.378;10.010;2023-10-08T01:55:16;97147.50;;;15.74
76347;BMP280;65171;48.378;10.010;2023-10-08T01:57:42;97119.03;;;15.68
76347;BMP280;65171;48.378;10.010;2023-10-08T02:00:07;97152.91;;;15.83
76347;BMP280;65171;48.378;10.010;2023-10-08T02:02:33;97149.28;;;15.77
76347;BMP280;65171;48.378;10.010;2023-10-08T02:04:58;97157.56;;;15.80
76347;BMP280;65171;48.378;10.010;2023-10-08T02:07:23;97147.75;;;15.76
76347;BMP280;65171;48.378;10.010;2023-10-08T02:09:48;97150.09;;;15.77
76347;BMP280;65171;48.378;10.010;2023-10-08T02:12:14;97127.31;;;15.66
76347;BMP280;65171;48.378;10.010;2023-10-08T02:14:40;97124.47;;;15.66
76347;BMP280;65171;48.378;10.010;2023-10-08T02:17:05;97143.59;;;15.77
76347;BMP280;65171;48.378;10.010;2023-10-08T02:19:31;97099.94;;;15.41
76347;BMP280;65171;48.378;10.010;2023-10-08T02:21:57;97142.59;;;15.69
76347;BMP280;65171;48.378;10.010;2023-10-08T02:24:22;97131.19;;;15.63
76347;BMP280;65171;48.378;10.010;2023-10-08T02:26:47;97150.09;;;15.77
76347;BMP280;65171;48.378;10.010;2023-10-08T02:29:13;97153.44;;;15.76
76347;BMP280;65171;48.378;10.010;2023-10-08T02:31:39;97160.69;;;15.77
76347;BMP280;65171;48.378;10.010;2023-10-08T02:34:07;97143.34;;;15.69
76347;BMP280;65171;48.378;10.010;2023-10-08T02:36:33;97157.59;;;15.75
76347;BMP280;65171;48.378;10.010;2023-10-08T02:38:58;97128.13;;;15.56
76347;BMP280;65171;48.378;10.010;2023-10-08T02:41:23;97144.38;;;15.61
76347;BMP280;65171;48.378;10.010;2023-10-08T02:43:48;97140.00;;;15.60
76347;BMP280;65171;48.378;10.010;2023-10-08T02:46:14;97147.00;;;15.64
76347;BMP280;65171;48.378;10.010;2023-10-08T02:48:39;97141.56;;;15.66
76347;BMP280;65171;48.378;10.010;2023-10-08T02:51:04;97148.53;;;15.54
76347;BMP280;65171;48.378;10.010;2023-10-08T02:53:29;97149.81;;;15.59
76347;BMP280;65171;48.378;10.010;2023-10-08T02:55:54;97144.91;;;15.48
76347;BMP280;65171;48.378;10.010;2023-10-08T02:58:19;97143.34;;;15.42
76347;BMP280;65171;48.378;10.010;2023-10-08T03:00:46;97154.22;;;15.43
76347;BMP280;65171;48.378;10.010;2023-10-08T03:03:16;97144.91;;;15.43
76347;BMP280;65171;48.378;10.010;2023-10-08T03:05:49;97152.66;;;15.48
76347;BMP280;65171;48.378;10.010;2023-10-08T03:08:15;97151.63;;;15.45
76347;BMP280;65171;48.378;10.010;2023-10-08T03:10:40;97148.28;;;15.47
76347;BMP280;65171;48.378;10.010;2023-10-08T03:13:06;97149.28;;;15.44
76347;BMP280;65171;48.378;10.010;2023-10-08T03:15:31;97143.59;;;15.44
76347;BMP280;65171;48.378;10.010;2023-10-08T03:18:00;97147.25;;;15.39
76347;BMP280;65171;48.378;10.010;2023-10-08T03:20:25;97142.84;;;15.43
76347;BMP280;65171;48.378;10.010;2023-10-08T03:22:50;97136.13;;;15.35
76347;BMP280;65171;48.378;10.010;2023-10-08T03:25:15;97121.34;;;15.20
76347;BMP280;65171;48.378;10.010;2023-10-08T03:27:40;97124.44;;;15.17
76347;BMP280;65171;48.378;10.010;2023-10-08T03:30:06;97141.75;;;15.30
76347;BMP280;65171;48.378;10.010;2023-10-08T03:32:32;97143.81;;;15.29
76347;BMP280;65171;48.378;10.010;2023-10-08T03:34:57;97149.00;;;15.31
76347;BMP280;65171;48.378;10.010;2023-10-08T03:37:22;97154.22;;;15.32
76347;BMP280;65171;48.378;10.010;2023-10-08T03:39:49;97154.19;;;15.27
76347;BMP280;65171;48.378;10.010;2023-10-08T03:42:19;97158.03;;;15.24
76347;BMP280;65171;48.378;10.010;2023-10-08T03:44:44;97165.31;;;15.36
76347;BMP280;65171;48.378;10.010;2023-10-08T03:47:09;97170.44;;;15.32
76347;BMP280;65171;48.378;10.010;2023-10-08T03:49:34;97172.03;;;15.44
76347;BMP280;65171;48.378;10.010;2023-10-08T03:52:00;97133.47;;;14.99
76347;BMP280;65171;48.378;10.010;2023-10-08T03:54:25;97175.88;;;15.24
76347;BMP280;65171;48.378;10.010;2023-10-08T03:56:50;97183.38;;;15.22
76347;BMP280;65171;48.378;10.010;2023-10-08T03:59:15;97175.63;;;15.17
76347;BMP280;65171;48.378;10.010;2023-10-08T04:01:42;97172.22;;;15.13
76347;BMP280;65171;48.378;10.010;2023-10-08T04:04:07;97174.50;;;14.98
76347;BMP280;65171;48.378;10.010;2023-10-08T04:06:32;97159.97;;;14.74
76347;BMP280;65171;48.378;10.010;2023-10-08T04:09:00;97165.19;;;14.92
76347;BMP280;65171;48.378;10.010;2023-10-08T04:11:25;97157.50;;;15.03
76347;BMP280;65171;48.378;10.010;2023-10-08T04:13:50;97138.34;;;15.04
76347;BMP280;65171;48.378;10.010;2023-10-08T04:16:15;97160.88;;;15.29
76347;BMP280;65171;48.378;10.010;2023-10-08T04:18:41;97151.34;;;15.27
76347;BMP280;65171;48.378;10.010;2023-10-08T04:21:07;97148.97;;;15.20
76347;BMP280;65171;48.378;10.010;2023-10-08T04:23:32;97119.94;;;14.77
76347;BMP280;65171;48.378;10.010;2023-10-08T04:25:57;97153.84;;;14.92
76347;BMP280;65171;48.378;10.010;2023-10-08T04:28:23;97152.28;;;14.91
76347;BMP280;65171;48.378;10.010;2023-10-08T04:30:48;97150.72;;;14.84
76347;BMP280;65171;48.378;10.010;2023-10-08T04:33:13;97163.13;;;14.87
76347;BMP280;65171;48.378;10.010;2023-10-08T04:35:41;97154.81;;;14.72
76347;BMP280;65171;48.378;10.010;2023-10-08T04:38:06;97159.19;;;14.62
76347;BMP280;65171;48.378;10.010;2023-10-08T04:40:32;97156.78;;;14.44
76347;BMP280;65171;48.378;10.010;2023-10-08T04:42:57;97159.84;;;14.41
76347;BMP280;65171;48.378;10.010;2023-10-08T04:45:22;97149.59;;;14.60
76347;BMP280;65171;48.378;10.010;2023-10-08T04:47:47;97153.50;;;14.68
76347;BMP280;65171;48.378;10.010;2023-10-08T04:50:12;97151.94;;;14.67
76347;BMP280;65171;48.378;10.010;2023-10-08T04:52:38;97147.59;;;14.77
76347;BMP280;65171;48.378;10.010;2023-10-08T04:55:03;97151.25;;;14.83
76347;BMP280;65171;48.378;10.010;2023-10-08T04:57:28;97155.38;;;14.87
76347;BMP280;65171;48.378;10.010;2023-10-08T04:59:54;97157.16;;;14.85
76347;BMP280;65171;48.378;10.010;2023-10-08T05:02:19;97160.28;;;14.87
76347;BMP280;65171;48.378;10.010;2023-10-08T05:04:45;97167.75;;;14.79
76347;BMP280;65171;48.378;10.010;2023-10-08T05:07:10;97165.13;;;14.70
76347;BMP280;65171;48.378;10.010;2023-10-08T05:09:35;97163.88;;;14.76
76347;BMP280;65171;48.378;10.010;2023-10-08T05:12:00;97165.94;;;14.81
76347;BMP280;65171;48.378;10.010;2023-10-08T05:14:26;97172.94;;;14.80
76347;BMP280;65171;48.378;10.010;2023-10-08T05:16:51;97170.38;;;14.88
76347;BMP280;65171;48.378;10.010;2023-10-08T05:19:16;97173.47;;;14.84
76347;BMP280;65171;48.378;10.010;2023-10-08T05:21:41;97183.50;;;14.74
76347;BMP280;65171;48.378;10.010;2023-10-08T05:24:06;97189.13;;;14.63
76347;BMP280;65171;48.378;10.010;2023-10-08T05:26:32;97192.97;;;14.55
76347;BMP280;65171;48.378;10.010;2023-10-08T05:28:57;97192.06;;;14.32
76347;BMP280;65171;48.378;10.010;2023-10-08T05:31:22;97187.97;;;14.39
76347;BMP280;65171;48.378;10.010;2023-10-08T05:33:48;97195.88;;;14.24
76347;BMP280;65171;48.378;10.010;2023-10-08T05:36:13;97193.41;;;14.42
76347;BMP280;65171;48.378;10.010;2023-10-08T05:38:38;97181.88;;;14.15
76347;BMP280;65171;48.378;10.010;2023-10-08T05:41:04;97177.03;;;14.21
76347;BMP280;65171;48.378;10.010;2023-10-08T05:43:31;97197.59;;;14.10
76347;BMP280;65171;48.378;10.010;2023-10-08T05:45:56;97189.03;;;14.05
76347;BMP280;65171;48.378;10.010;2023-10-08T05:48:22;97203.22;;;14.05
76347;BMP280;65171;48.378;10.010;2023-10-08T05:50:47;97192.97;;;13.82
76347;BMP280;65171;48.378;10.010;2023-10-08T05:53:12;97196.78;;;14.10
76347;BMP280;65171;48.378;10.010;2023-10-08T05:55:37;97180.31;;;13.77
76347;BMP280;65171;48.378;10.010;2023-10-08T05:58:04;97201.00;;;13.83
76347;BMP280;65171;48.378;10.010;2023-10-08T06:00:30;97199.97;;;13.86
76347;BMP280;65171;48.378;10.010;2023-10-08T06:02:55;97202.41;;;13.99
76347;BMP280;65171;48.378;10.010;2023-10-08T06:05:20;97194.69;;;14.05
76347;BMP280;65171;48.378;10.010;2023-10-08T06:07:47;97185.19;;;14.55
76347;BMP280;65171;48.378;10.010;2023-10-08T06:10:14;97170.28;;;14.66
76347;BMP280;65171;48.378;10.010;2023-10-08T06:12:39;97195.91;;;14.77
76347;BMP280;65171;48.378;10.010;2023-10-08T06:15:04;97189.47;;;14.82
76347;BMP280;65171;48.378;10.010;2023-10-08T06:17:30;97191.00;;;14.83
76347;BMP280;65171;48.378;10.010;2023-10-08T06:19:56;97188.94;;;14.78
76347;BMP280;65171;48.378;10.010;2023-10-08T06:22:21;97178.41;;;14.95
76347;BMP280;65171;48.378;10.010;2023-10-08T06:24:46;97187.38;;;14.82
76347;BMP280;65171;48.378;10.010;2023-10-08T06:27:11;97190.06;;;15.08
76347;BMP280;65171;48.378;10.010;2023-10-08T06:29:37;97182.25;;;14.92
76347;BMP280;65171;48.378;10.010;2023-10-08T06:32:02;97183.00;;;14.81
76347;BMP280;65171;48.378;10.010;2023-10-08T06:34:30;97179.38;;;14.81
76347;BMP280;65171;48.378;10.010;2023-10-08T06:36:58;97180.94;;;14.82
76347;BMP280;65171;48.378;10.010;2023-10-08T06:39:24;97177.09;;;14.90
76347;BMP280;65171;48.378;10.010;2023-10-08T06:41:50;97195.72;;;15.08
76347;BMP280;65171;48.378;10.010;2023-10-08T06:44:15;97192.34;;;15.04
76347;BMP280;65171;48.378;10.010;2023-10-08T06:46:41;97199.38;;;15.08
76347;BMP280;65171;48.378;10.010;2023-10-08T06:49:08;97197.56;;;15.11
76347;BMP280;65171;48.378;10.010;2023-10-08T06:51:33;97205.84;;;15.14
76347;BMP280;65171;48.378;10.010;2023-10-08T06:53:58;97200.88;;;15.04
76347;BMP280;65171;48.378;10.010;2023-10-08T06:56:23;97198.34;;;15.17
76347;BMP280;65171;48.378;10.010;2023-10-08T06:58:48;97190.59;;;15.12
76347;BMP280;65171;48.378;10.010;2023-10-08T07:01:17;97183.09;;;15.14
76347;BMP280;65171;48.378;10.010;2023-10-08T07:03:42;97192.16;;;15.29
76347;BMP280;65171;48.378;10.010;2023-10-08T07:06:07;97191.88;;;15.16
76347;BMP280;65171;48.378;10.010;2023-10-08T07:08:33;97197.38;;;15.42
76347;BMP280;65171;48.378;10.010;2023-10-08T07:11:01;97199.22;;;15.56
76347;BMP280;65171;48.378;10.010;2023-10-08T07:13:27;97201.81;;;15.59
76347;BMP280;65171;48.378;10.010;2023-10-08T07:15:52;97196.88;;;15.60
76347;BMP280;65171;48.378;10.010;2023-10-08T07:18:18;97203.63;;;15.62
76347;BMP280;65171;48.378;10.010;2023-10-08T07:20:44;97203.63;;;15.57
76347;BMP280;65171;48.378;10.010;2023-10-08T07:23:10;97209.81;;;15.39
76347;BMP280;65171;48.378;10.010;2023-10-08T07:25:36;97209.56;;;15.42
76347;BMP280;65171;48.378;10.010;2023-10-08T07:28:01;97216.75;;;15.38
76347;BMP280;65171;48.378;10.010;2023-10-08T07:30:26;97218.09;;;15.42
76347;BMP280;65171;48.378;10.010;2023-10-08T07:32:55;97218.88;;;15.59
76347;BMP280;65171;48.378;10.010;2023-10-08T07:35:20;97222.78;;;15.73
76347;BMP280;65171;48.378;10.010;2023-10-08T07:37:46;97224.03;;;15.72
76347;BMP280;65171;48.378;10.010;2023-10-08T07:40:11;97212.69;;;15.77
76347;BMP280;65171;48.378;10.010;2023-10-08T07:42:36;97193.78;;;15.47
76347;BMP280;65171;48.378;10.010;2023-10-08T07:45:01;97214.22;;;15.56
76347;BMP280;65171;48.378;10.010;2023-10-08T07:47:27;97207.25;;;15.90
76347;BMP280;65171;48.378;10.010;2023-10-08T07:49:52;97202.59;;;15.82
76347;BMP280;65171;48.378;10.010;2023-10-08T07:52:17;97198.44;;;16.05
76347;BMP280;65171;48.378;10.010;2023-10-08T07:54:42;97196.09;;;16.20
76347;BMP280;65171;48.378;10.010;2023-10-08T07:57:08;97163.78;;;16.01
76347;BMP280;65171;48.378;10.010;2023-10-08T07:59:33;97198.91;;;16.25
76347;BMP280;65171;48.378;10.010;2023-10-08T08:01:58;97191.69;;;16.30
76347;BMP280;65171;48.378;10.010;2023-10-08T08:04:23;97204.59;;;16.36
76347;BMP280;65171;48.378;10.010;2023-10-08T08:06:49;97220.38;;;16.37
76347;BMP280;65171;48.378;10.010;2023-10-08T08:09:18;97228.41;;;16.61
76347;BMP280;65171;48.378;10.010;2023-10-08T08:11:44;97222.16;;;16.68
76347;BMP280;65171;48.378;10.010;2023-10-08T08:14:09;97216.56;;;17.03
76347;BMP280;65171;48.378;10.010;2023-10-08T08:16:34;97217.72;;;17.35
76347;BMP280;65171;48.378;10.010;2023-10-08T08:18:59;97221.69;;;17.67
76347;BMP280;65171;48.378;10.010;2023-10-08T08:21:25;97227.63;;;18.04
76347;BMP280;65171;48.378;10.010;2023-10-08T08:23:50;97239.16;;;18.22
76347;BMP280;65171;48.378;10.010;2023-10-08T08:26:23;97234.56;;;17.44
76347;BMP280;65171;48.378;10.010;2023-10-08T08:28:49;97225.72;;;19.13
76347;BMP280;65171;48.378;10.010;2023-10-08T08:31:14;97242.41;;;20.52
76347;BMP280;65171;48.378;10.010;2023-10-08T08:33:40;97232.69;;;21.72
76347;BMP280;65171;48.378;10.010;2023-10-08T08:36:06;97266.97;;;21.18
76347;BMP280;65171;48.378;10.010;2023-10-08T08:38:31;97254.38;;;21.34
76347;BMP280;65171;48.378;10.010;2023-10-08T08:41:05;97265.22;;;21.02
76347;BMP280;65171;48.378;10.010;2023-10-08T08:43:31;97250.81;;;21.54
76347;BMP280;65171;48.378;10.010;2023-10-08T08:45:57;97258.03;;;22.48
76347;BMP280;65171;48.378;10.010;2023-10-08T08:48:23;97277.03;;;22.92
76347;BMP280;65171;48.378;10.010;2023-10-08T08:50:48;97275.56;;;22.98
76347;BMP280;65171;48.378;10.010;2023-10-08T08:53:14;97272.97;;;22.87
76347;BMP280;65171;48.378;10.010;2023-10-08T08:55:39;97285.16;;;22.39
76347;BMP280;65171;48.378;10.010;2023-10-08T08:58:04;97271.00;;;23.74
76347;BMP280;65171;48.378;10.010;2023-10-08T09:00:30;97256.31;;;25.25
76347;BMP280;65171;48.378;10.010;2023-10-08T09:02:55;97259.84;;;25.63
76347;BMP280;65171;48.378;10.010;2023-10-08T09:05:20;97270.97;;;22.54
76347;BMP280;65171;48.378;10.010;2023-10-08T09:08:02;97260.97;;;22.35
76347;BMP280;65171;48.378;10.010;2023-10-08T09:10:28;97264.03;;;21.83
76347;BMP280;65171;48.378;10.010;2023-10-08T09:12:54;97275.28;;;20.64
76347;BMP280;65171;48.378;10.010;2023-10-08T09:15:20;97278.25;;;20.58
76347;BMP280;65171;48.378;10.010;2023-10-08T09:17:45;97274.84;;;20.60
76347;BMP280;65171;48.378;10.010;2023-10-08T09:20:10;97278.88;;;20.51
76347;BMP280;65171;48.378;10.010;2023-10-08T09:22:35;97278.13;;;20.01
76347;BMP280;65171;48.378;10.010;2023-10-08T09:25:01;97277.66;;;20.34
76347;BMP280;65171;48.378;10.010;2023-10-08T09:27:26;97252.72;;;20.29
76347;BMP280;65171;48.378;10.010;2023-10-08T09:29:51;97278.16;;;20.64
76347;BMP280;65171;48.378;10.010;2023-10-08T09:32:16;97281.56;;;21.20
76347;BMP280;65171;48.378;10.010;2023-10-08T09:34:42;97289.03;;;21.49
76347;BMP280;65171;48.378;10.010;2023-10-08T09:37:07;97281.53;;;21.46
76347;BMP280;65171;48.378;10.010;2023-10-08T09:39:33;97259.31;;;21.59
76347;BMP280;65171;48.378;10.010;2023-10-08T09:41:58;97273.56;;;21.78
76347;BMP280;65171;48.378;10.010;2023-10-08T09:44:24;97270.81;;;22.06
76347;BMP280;65171;48.378;10.010;2023-10-08T09:47:16;97265.94;;;21.80
76347;BMP280;65171;48.378;10.010;2023-10-08T09:52:19;97256.91;;;21.37
76347;BMP280;65171;48.378;10.010;2023-10-08T09:54:56;97261.00;;;21.29
76347;BMP280;65171;48.378;10.010;2023-10-08T09:57:24;97284.25;;;21.77
76347;BMP280;65171;48.378;10.010;2023-10-08T09:59:49;97280.63;;;21.51
76347;BMP280;65171;48.378;10.010;2023-10-08T10:02:16;97283.53;;;21.25
76347;BMP280;65171;48.378;10.010;2023-10-08T10:04:45;97260.13;;;21.21
76347;BMP280;65171;48.378;10.010;2023-10-08T10:07:11;97259.69;;;21.17
76347;BMP280;65171;48.378;10.010;2023-10-08T10:09:37;97276.91;;;21.43
76347;BMP280;65171;48.378;10.010;2023-10-08T10:12:02;97263.81;;;20.77
76347;BMP280;65171;48.378;10.010;2023-10-08T10:14:41;97282.88;;;20.48
76347;BMP280;65171;48.378;10.010;2023-10-08T10:17:13;97274.44;;;21.73
76347;BMP280;65171;48.378;10.010;2023-10-08T10:19:38;97279.13;;;21.37
76347;BMP280;65171;48.378;10.010;2023-10-08T10:22:04;97284.47;;;21.66
76347;BMP280;65171;48.378;10.010;2023-10-08T10:24:33;97283.84;;;22.07
76347;BMP280;65171;48.378;10.010;2023-10-08T10:27:10;97277.59;;;22.29
76347;BMP280;65171;48.378;10.010;2023-10-08T10:29:36;97289.31;;;22.92
76347;BMP280;65171;48.378;10.010;2023-10-08T10:32:01;97300.91;;;21.92
76347;BMP280;65171;48.378;10.010;2023-10-08T10:34:27;97291.75;;;22.27
76347;BMP280;65171;48.378;10.010;2023-10-08T10:36:54;97280.78;;;21.92
76347;BMP280;65171;48.378;10.010;2023-10-08T10:39:19;97306.06;;;21.34
76347;BMP280;65171;48.378;10.010;2023-10-08T10:41:48;97294.34;;;21.06
76347;BMP280;65171;48.378;10.010;2023-10-08T10:44:16;97291.34;;;21.37
76347;BMP280;65171;48.378;10.010;2023-10-08T10:46:45;97288.06;;;21.33
76347;BMP280;65171;48.378;10.010;2023-10-08T10:49:10;97282.88;;;21.06
76347;BMP280;65171;48.378;10.010;2023-10-08T10:51:39;97289.06;;;21.36
76347;BMP280;65171;48.378;10.010;2023-10-08T10:54:05;97269.19;;;21.12
76347;BMP280;65171;48.378;10.010;2023-10-08T10:56:30;97281.31;;;21.05
76347;BMP280;65171;48.378;10.010;2023-10-08T10:58:59;97274.69;;;21.23
76347;BMP280;65171;48.378;10.010;2023-10-08T11:01:28;97263.94;;;20.71
76347;BMP280;65171;48.378;10.010;2023-10-08T11:03:56;97274.66;;;21.62
76347;BMP280;65171;48.378;10.010;2023-10-08T11:06:22;97278.53;;;22.11
76347;BMP280;65171;48.378;10.010;2023-10-08T11:08:51;97272.25;;;21.53
76347;BMP280;65171;48.378;10.010;2023-10-08T11:11:18;97284.59;;;21.74
76347;BMP280;65171;48.378;10.010;2023-10-08T11:13:43;97291.31;;;21.89
76347;BMP280;65171;48.378;10.010;2023-10-08T11:16:08;97281.53;;;22.05
76347;BMP280;65171;48.378;10.010;2023-10-08T11:18:43;97275.84;;;22.46
76347;BMP280;65171;48.378;10.010;2023-10-08T11:21:09;97269.34;;;22.46
76347;BMP280;65171;48.378;10.010;2023-10-08T11:23:36;97270.41;;;22.43
76347;BMP280;65171;48.378;10.010;2023-10-08T11:26:04;97270.69;;;22.32
76347;BMP280;65171;48.378;10.010;2023-10-08T11:28:34;97263.19;;;22.08
76347;BMP280;65171;48.378;10.010;2023-10-08T11:31:01;97247.06;;;21.46
76347;BMP280;65171;48.378;10.010;2023-10-08T11:33:28;97266.69;;;22.14
76347;BMP280;65171;48.378;10.010;2023-10-08T11:36:03;97257.44;;;21.62
76347;BMP280;65171;48.378;10.010;2023-10-08T11:38:39;97276.28;;;21.83
76347;BMP280;65171;48.378;10.010;2023-10-08T11:41:15;97266.41;;;21.45
76347;BMP280;65171;48.378;10.010;2023-10-08T11:43:40;97257.44;;;21.62
76347;BMP280;65171;48.378;10.010;2023-10-08T11:46:11;97263.53;;;21.32
76347;BMP280;65171;48.378;10.010;2023-10-08T11:48:36;97254.72;;;21.90
76347;BMP280;65171;48.378;10.010;2023-10-08T11:51:01;97256.81;;;22.02
76347;BMP280;65171;48.378;10.010;2023-10-08T11:53:26;97248.19;;;22.02
76347;BMP280;65171;48.378;10.010;2023-10-08T11:55:51;97253.84;;;21.95
76347;BMP280;65171;48.378;10.010;2023-10-08T11:58:17;97257.00;;;22.04
76347;BMP280;65171;48.378;10.010;2023-10-08T12:00:42;97238.94;;;22.78
76347;BMP280;65171;48.378;10.010;2023-10-08T12:03:08;97242.13;;;22.47
76347;BMP280;65171;48.378;10.010;2023-10-08T12:05:33;97242.66;;;22.25
76347;BMP280;65171;48.378;10.010;2023-10-08T12:07:59;97218.28;;;22.59
76347;BMP280;65171;48.378;10.010;2023-10-08T12:10:24;97212.31;;;23.13
76347;BMP280;65171;48.378;10.010;2023-10-08T12:12:53;97217.50;;;23.43
76347;BMP280;65171;48.378;10.010;2023-10-08T12:15:19;97215.13;;;23.06
76347;BMP280;65171;48.378;10.010;2023-10-08T12:17:48;97219.47;;;23.20
76347;BMP280;65171;48.378;10.010;2023-10-08T12:20:14;97208.41;;;22.14
76347;BMP280;65171;48.378;10.010;2023-10-08T12:22:39;97207.66;;;22.13
76347;BMP280;65171;48.378;10.010;2023-10-08T12:25:05;97211.56;;;22.23
76347;BMP280;65171;48.378;10.010;2023-10-08T12:27:30;97207.66;;;22.34
76347;BMP280;65171;48.378;10.010;2023-10-08T12:29:55;97205.47;;;22.06
76347;BMP280;65171;48.378;10.010;2023-10-08T12:32:20;97205.69;;;22.29
76347;BMP280;65171;48.378;10.010;2023-10-08T12:34:45;97207.09;;;22.15
76347;BMP280;65171;48.378;10.010;2023-10-08T12:37:11;97160.91;;;22.13
76347;BMP280;65171;48.378;10.010;2023-10-08T12:39:36;97201.69;;;22.73
76347;BMP280;65171;48.378;10.010;2023-10-08T12:42:01;97203.19;;;22.46
76347;BMP280;65171;48.378;10.010;2023-10-08T12:44:26;97215.78;;;22.22
76347;BMP280;65171;48.378;10.010;2023-10-08T12:46:51;97221.41;;;22.69
76347;BMP280;65171;48.378;10.010;2023-10-08T12:49:17;97228.41;;;22.81
76347;BMP280;65171;48.378;10.010;2023-10-08T12:51:42;97228.28;;;22.66
76347;BMP280;65171;48.378;10.010;2023-10-08T12:54:07;97217.13;;;23.46
76347;BMP280;65171;48.378;10.010;2023-10-08T12:56:33;97232.44;;;24.95
76347;BMP280;65171;48.378;10.010;2023-10-08T12:58:59;97246.66;;;25.23
76347;BMP280;65171;48.378;10.010;2023-10-08T13:01:24;97232.41;;;25.94
76347;BMP280;65171;48.378;10.010;2023-10-08T13:03:50;97242.69;;;26.20
76347;BMP280;65171;48.378;10.010;2023-10-08T13:06:18;97233.75;;;25.86
76347;BMP280;65171;48.378;10.010;2023-10-08T13:08:43;97221.78;;;26.61
76347;BMP280;65171;48.378;10.010;2023-10-08T13:11:09;97218.34;;;26.55
76347;BMP280;65171;48.378;10.010;2023-10-08T13:13:34;97214.16;;;27.14
76347;BMP280;65171;48.378;10.010;2023-10-08T13:16:00;97212.09;;;28.09
76347;BMP280;65171;48.378;10.010;2023-10-08T13:18:25;97212.56;;;27.89
76347;BMP280;65171;48.378;10.010;2023-10-08T13:20:51;97209.34;;;27.34
76347;BMP280;65171;48.378;10.010;2023-10-08T13:23:17;97205.38;;;28.60
76347;BMP280;65171;48.378;10.010;2023-10-08T13:25:42;97206.50;;;28.21
76347;BMP280;65171;48.378;10.010;2023-10-08T13:28:07;97213.00;;;27.51
76347;BMP280;65171;48.378;10.010;2023-10-08T13:30:32;97207.63;;;27.82
76347;BMP280;65171;48.378;10.010;2023-10-08T13:32:58;97205.28;;;27.97
76347;BMP280;65171;48.378;10.010;2023-10-08T13:35:23;97201.88;;;29.07
76347;BMP280;65171;48.378;10.010;2023-10-08T13:37:48;97199.63;;;29.53
76347;BMP280;65171;48.378;10.010;2023-10-08T13:40:14;97200.75;;;29.86
76347;BMP280;65171;48.378;10.010;2023-10-08T13:42:39;97184.50;;;30.02
76347;BMP280;65171;48.378;10.010;2023-10-08T13:45:05;97194.88;;;29.19
76347;BMP280;65171;48.378;10.010;2023-10-08T13:47:30;97185.09;;;29.53
76347;BMP280;65171;48.378;10.010;2023-10-08T13:49:55;97192.22;;;29.04
76347;BMP280;65171;48.378;10.010;2023-10-08T13:52:21;97199.34;;;29.87